sensor_id;sensor_type;location;lat;lon;timestamp;P1;durP1;ratioP1;P2;durP2;ratioP2
59728;SDS011;45588;51.598;5.618;2023-04-24T00:01:05;10.77;;;6.97;;
59728;SDS011;45588;51.598;5.618;2023-04-24T00:03:32;16.15;;;14.63;;
59728;SDS011;45588;51.598;5.618;2023-04-24T00:05:57;13.43;;;8.45;;
59728;SDS011;45588;51.598;5.618;2023-04-24T00:08:23;14.15;;;8.55;;
59728;SDS011;45588;51.598;5.618;2023-04-24T00:10:49;13.02;;;9.23;;
59728;SDS011;45588;51.598;5.618;2023-04-24T00:13:14;19.25;;;17.45;;
59728;SDS011;45588;51.598;5.618;2023-04-24T00:15:39;17.27;;;10.47;;
59728;SDS011;45588;51.598;5.618;2023-04-24T00:18:04;15.90;;;10.47;;
59728;SDS011;45588;51.598;5.618;2023-04-24T00:20:30;23.27;;;20.42;;
59728;SDS011;45588;51.598;5.618;2023-04-24T00:22:57;17.02;;;10.68;;
59728;SDS011;45588;51.598;5.618;2023-04-24T00:25:22;17.77;;;11.90;;
59728;SDS011;45588;51.598;5.618;2023-04-24T00:27:47;23.35;;;21.02;;
59728;SDS011;45588;51.598;5.618;2023-04-24T00:30:12;25.30;;;21.53;;
59728;SDS011;45588;51.598;5.618;2023-04-24T00:32:38;24.73;;;20.90;;
59728;SDS011;45588;51.598;5.618;2023-04-24T00:35:03;17.57;;;10.43;;
59728;SDS011;45588;51.598;5.618;2023-04-24T00:37:28;21.98;;;15.27;;
59728;SDS011;45588;51.598;5.618;2023-04-24T00:39:54;19.48;;;13.18;;
59728;SDS011;45588;51.598;5.618;2023-04-24T00:42:20;31.80;;;21.70;;
59728;SDS011;45588;51.598;5.618;2023-04-24T00:44:45;31.60;;;25.25;;
59728;SDS011;45588;51.598;5.618;2023-04-24T00:47:10;27.55;;;14.20;;
59728;SDS011;45588;51.598;5.618;2023-04-24T00:49:36;30.05;;;18.95;;
59728;SDS011;45588;51.598;5.618;2023-04-24T00:52:01;26.33;;;14.25;;
59728;SDS011;45588;51.598;5.618;2023-04-24T00:54:27;23.77;;;12.98;;
59728;SDS011;45588;51.598;5.618;2023-04-24T00:56:52;33.47;;;27.17;;
59728;SDS011;45588;51.598;5.618;2023-04-24T00:59:17;22.10;;;13.55;;
59728;SDS011;45588;51.598;5.618;2023-04-24T01:01:43;32.75;;;15.20;;
59728;SDS011;45588;51.598;5.618;2023-04-24T01:04:08;30.52;;;15.15;;
59728;SDS011;45588;51.598;5.618;2023-04-24T01:06:34;34.97;;;26.65;;
59728;SDS011;45588;51.598;5.618;2023-04-24T01:09:01;33.28;;;29.25;;
59728;SDS011;45588;51.598;5.618;2023-04-24T01:11:27;28.00;;;14.55;;
59728;SDS011;45588;51.598;5.618;2023-04-24T01:13:53;28.88;;;16.38;;
59728;SDS011;45588;51.598;5.618;2023-04-24T01:16:18;36.50;;;28.93;;
59728;SDS011;45588;51.598;5.618;2023-04-24T01:18:45;41.35;;;30.20;;
59728;SDS011;45588;51.598;5.618;2023-04-24T01:21:10;27.63;;;13.48;;
59728;SDS011;45588;51.598;5.618;2023-04-24T01:23:38;27.85;;;16.15;;
59728;SDS011;45588;51.598;5.618;2023-04-24T01:26:03;28.67;;;15.15;;
59728;SDS011;45588;51.598;5.618;2023-04-24T01:28:28;41.95;;;31.23;;
59728;SDS011;45588;51.598;5.618;2023-04-24T01:30:53;29.10;;;15.70;;
59728;SDS011;45588;51.598;5.618;2023-04-24T01:33:20;31.40;;;16.88;;
59728;SDS011;45588;51.598;5.618;2023-04-24T01:35:46;42.03;;;32.28;;
59728;SDS011;45588;51.598;5.618;2023-04-24T01:38:11;26.75;;;16.23;;
59728;SDS011;45588;51.598;5.618;2023-04-24T01:40:36;28.67;;;16.63;;
59728;SDS011;45588;51.598;5.618;2023-04-24T01:43:01;33.08;;;15.80;;
59728;SDS011;45588;51.598;5.618;2023-04-24T01:45:27;34.65;;;30.30;;
59728;SDS011;45588;51.598;5.618;2023-04-24T01:47:52;25.90;;;16.25;;
59728;SDS011;45588;51.598;5.618;2023-04-24T01:50:17;40.42;;;22.70;;
59728;SDS011;45588;51.598;5.618;2023-04-24T01:52:43;29.83;;;15.80;;
59728;SDS011;45588;51.598;5.618;2023-04-24T01:55:08;41.08;;;29.88;;
59728;SDS011;45588;51.598;5.618;2023-04-24T01:57:34;33.97;;;17.38;;
59728;SDS011;45588;51.598;5.618;2023-04-24T01:59:59;38.75;;;17.13;;
59728;SDS011;45588;51.598;5.618;2023-04-24T02:02:25;39.17;;;17.98;;
59728;SDS011;45588;51.598;5.618;2023-04-24T02:04:52;35.00;;;19.13;;
59728;SDS011;45588;51.598;5.618;2023-04-24T02:07:17;50.03;;;40.88;;
59728;SDS011;45588;51.598;5.618;2023-04-24T02:09:43;51.50;;;43.23;;
59728;SDS011;45588;51.598;5.618;2023-04-24T02:12:08;40.83;;;19.45;;
59728;SDS011;45588;51.598;5.618;2023-04-24T02:14:33;43.30;;;22.20;;
59728;SDS011;45588;51.598;5.618;2023-04-24T02:16:58;40.90;;;22.95;;
59728;SDS011;45588;51.598;5.618;2023-04-24T02:19:23;40.37;;;20.37;;
59728;SDS011;45588;51.598;5.618;2023-04-24T02:21:49;38.65;;;23.60;;
59728;SDS011;45588;51.598;5.618;2023-04-24T02:24:14;40.00;;;21.05;;
59728;SDS011;45588;51.598;5.618;2023-04-24T02:26:40;53.72;;;44.20;;
59728;SDS011;45588;51.598;5.618;2023-04-24T02:29:05;54.63;;;22.93;;
59728;SDS011;45588;51.598;5.618;2023-04-24T02:31:31;36.33;;;21.33;;
59728;SDS011;45588;51.598;5.618;2023-04-24T02:33:56;39.55;;;20.48;;
59728;SDS011;45588;51.598;5.618;2023-04-24T02:36:21;49.37;;;43.70;;
59728;SDS011;45588;51.598;5.618;2023-04-24T02:38:46;33.15;;;18.63;;
59728;SDS011;45588;51.598;5.618;2023-04-24T02:41:11;43.10;;;20.13;;
59728;SDS011;45588;51.598;5.618;2023-04-24T02:43:37;54.43;;;40.57;;
59728;SDS011;45588;51.598;5.618;2023-04-24T02:46:02;41.28;;;21.27;;
59728;SDS011;45588;51.598;5.618;2023-04-24T02:48:27;49.38;;;35.17;;
59728;SDS011;45588;51.598;5.618;2023-04-24T02:50:52;36.03;;;19.52;;
59728;SDS011;45588;51.598;5.618;2023-04-24T02:53:18;36.93;;;20.60;;
59728;SDS011;45588;51.598;5.618;2023-04-24T02:55:43;54.60;;;43.08;;
59728;SDS011;45588;51.598;5.618;2023-04-24T02:58:08;36.17;;;19.40;;
59728;SDS011;45588;51.598;5.618;2023-04-24T03:00:33;36.95;;;20.75;;
59728;SDS011;45588;51.598;5.618;2023-04-24T03:02:59;33.78;;;19.45;;
59728;SDS011;45588;51.598;5.618;2023-04-24T03:05:24;39.42;;;20.58;;
59728;SDS011;45588;51.598;5.618;2023-04-24T03:07:50;33.63;;;18.90;;
59728;SDS011;45588;51.598;5.618;2023-04-24T03:10:17;34.95;;;20.33;;
59728;SDS011;45588;51.598;5.618;2023-04-24T03:12:42;38.08;;;20.45;;
59728;SDS011;45588;51.598;5.618;2023-04-24T03:15:08;37.83;;;20.07;;
59728;SDS011;45588;51.598;5.618;2023-04-24T03:17:33;36.83;;;20.88;;
59728;SDS011;45588;51.598;5.618;2023-04-24T03:19:58;51.10;;;41.20;;
59728;SDS011;45588;51.598;5.618;2023-04-24T03:22:23;32.43;;;18.97;;
59728;SDS011;45588;51.598;5.618;2023-04-24T03:24:49;38.40;;;19.98;;
59728;SDS011;45588;51.598;5.618;2023-04-24T03:27:14;39.17;;;21.15;;
59728;SDS011;45588;51.598;5.618;2023-04-24T03:29:39;41.42;;;17.73;;
59728;SDS011;45588;51.598;5.618;2023-04-24T03:32:04;39.50;;;20.37;;
59728;SDS011;45588;51.598;5.618;2023-04-24T03:34:29;40.03;;;21.17;;
59728;SDS011;45588;51.598;5.618;2023-04-24T03:36:55;50.37;;;39.87;;
59728;SDS011;45588;51.598;5.618;2023-04-24T03:39:20;42.73;;;18.80;;
59728;SDS011;45588;51.598;5.618;2023-04-24T03:41:45;33.25;;;18.65;;
59728;SDS011;45588;51.598;5.618;2023-04-24T03:44:10;46.80;;;33.30;;
59728;SDS011;45588;51.598;5.618;2023-04-24T03:46:35;32.72;;;17.95;;
59728;SDS011;45588;51.598;5.618;2023-04-24T03:49:01;30.95;;;18.02;;
59728;SDS011;45588;51.598;5.618;2023-04-24T03:51:26;38.97;;;34.30;;
59728;SDS011;45588;51.598;5.618;2023-04-24T03:53:52;45.22;;;35.42;;
59728;SDS011;45588;51.598;5.618;2023-04-24T03:56:18;30.92;;;16.15;;
59728;SDS011;45588;51.598;5.618;2023-04-24T03:58:43;27.63;;;16.65;;
59728;SDS011;45588;51.598;5.618;2023-04-24T04:01:08;27.85;;;16.63;;
59728;SDS011;45588;51.598;5.618;2023-04-24T04:03:33;31.15;;;16.02;;
59728;SDS011;45588;51.598;5.618;2023-04-24T04:05:59;28.57;;;15.23;;
59728;SDS011;45588;51.598;5.618;2023-04-24T04:08:24;31.20;;;15.48;;
59728;SDS011;45588;51.598;5.618;2023-04-24T04:10:49;32.15;;;15.80;;
59728;SDS011;45588;51.598;5.618;2023-04-24T04:13:14;27.98;;;15.15;;
59728;SDS011;45588;51.598;5.618;2023-04-24T04:15:40;28.13;;;16.47;;
59728;SDS011;45588;51.598;5.618;2023-04-24T04:18:05;38.33;;;32.47;;
59728;SDS011;45588;51.598;5.618;2023-04-24T04:20:30;29.73;;;15.80;;
59728;SDS011;45588;51.598;5.618;2023-04-24T04:22:55;28.67;;;14.35;;
59728;SDS011;45588;51.598;5.618;2023-04-24T04:25:20;33.30;;;15.07;;
59728;SDS011;45588;51.598;5.618;2023-04-24T04:27:46;30.87;;;14.70;;
59728;SDS011;45588;51.598;5.618;2023-04-24T04:30:12;33.42;;;29.73;;
59728;SDS011;45588;51.598;5.618;2023-04-24T04:32:38;25.70;;;13.15;;
59728;SDS011;45588;51.598;5.618;2023-04-24T04:35:03;25.30;;;14.98;;
59728;SDS011;45588;51.598;5.618;2023-04-24T04:37:29;26.20;;;14.57;;
59728;SDS011;45588;51.598;5.618;2023-04-24T04:39:54;34.38;;;29.80;;
59728;SDS011;45588;51.598;5.618;2023-04-24T04:42:19;27.98;;;15.10;;
59728;SDS011;45588;51.598;5.618;2023-04-24T04:44:45;25.05;;;13.98;;
59728;SDS011;45588;51.598;5.618;2023-04-24T04:47:10;26.67;;;14.27;;
59728;SDS011;45588;51.598;5.618;2023-04-24T04:49:35;22.30;;;13.65;;
59728;SDS011;45588;51.598;5.618;2023-04-24T04:52:00;31.83;;;28.52;;
59728;SDS011;45588;51.598;5.618;2023-04-24T04:54:26;23.13;;;13.10;;
59728;SDS011;45588;51.598;5.618;2023-04-24T04:56:51;20.88;;;13.23;;
59728;SDS011;45588;51.598;5.618;2023-04-24T04:59:16;32.25;;;28.77;;
59728;SDS011;45588;51.598;5.618;2023-04-24T05:01:41;19.13;;;12.18;;
59728;SDS011;45588;51.598;5.618;2023-04-24T05:04:07;19.63;;;12.80;;
59728;SDS011;45588;51.598;5.618;2023-04-24T05:06:32;16.63;;;11.83;;
59728;SDS011;45588;51.598;5.618;2023-04-24T05:08:57;20.52;;;11.60;;
59728;SDS011;45588;51.598;5.618;2023-04-24T05:11:22;22.67;;;11.87;;
59728;SDS011;45588;51.598;5.618;2023-04-24T05:13:48;20.60;;;12.88;;
59728;SDS011;45588;51.598;5.618;2023-04-24T05:16:13;17.37;;;11.80;;
59728;SDS011;45588;51.598;5.618;2023-04-24T05:18:38;16.77;;;11.50;;
59728;SDS011;45588;51.598;5.618;2023-04-24T05:21:03;25.90;;;23.40;;
59728;SDS011;45588;51.598;5.618;2023-04-24T05:23:28;16.63;;;11.60;;
59728;SDS011;45588;51.598;5.618;2023-04-24T05:25:53;16.27;;;11.00;;
59728;SDS011;45588;51.598;5.618;2023-04-24T05:28:19;19.20;;;11.82;;
59728;SDS011;45588;51.598;5.618;2023-04-24T05:30:44;24.60;;;21.70;;
59728;SDS011;45588;51.598;5.618;2023-04-24T05:33:10;18.15;;;12.05;;
59728;SDS011;45588;51.598;5.618;2023-04-24T05:35:35;20.75;;;11.82;;
59728;SDS011;45588;51.598;5.618;2023-04-24T05:38:00;17.60;;;10.33;;
59728;SDS011;45588;51.598;5.618;2023-04-24T05:40:26;16.13;;;10.13;;
59728;SDS011;45588;51.598;5.618;2023-04-24T05:42:51;25.80;;;23.20;;
59728;SDS011;45588;51.598;5.618;2023-04-24T05:45:16;19.73;;;10.85;;
59728;SDS011;45588;51.598;5.618;2023-04-24T05:47:42;16.03;;;10.07;;
59728;SDS011;45588;51.598;5.618;2023-04-24T05:50:08;20.02;;;10.98;;
59728;SDS011;45588;51.598;5.618;2023-04-24T05:52:33;13.88;;;9.07;;
59728;SDS011;45588;51.598;5.618;2023-04-24T05:54:59;16.88;;;10.52;;
59728;SDS011;45588;51.598;5.618;2023-04-24T05:57:24;21.80;;;19.45;;
59728;SDS011;45588;51.598;5.618;2023-04-24T05:59:49;15.73;;;8.57;;
59728;SDS011;45588;51.598;5.618;2023-04-24T06:02:14;21.80;;;8.95;;
59728;SDS011;45588;51.598;5.618;2023-04-24T06:04:39;13.90;;;7.60;;
59728;SDS011;45588;51.598;5.618;2023-04-24T06:07:05;12.93;;;8.00;;
59728;SDS011;45588;51.598;5.618;2023-04-24T06:09:31;12.55;;;6.95;;
59728;SDS011;45588;51.598;5.618;2023-04-24T06:11:56;6.70;;;6.00;;
59728;SDS011;45588;51.598;5.618;2023-04-24T06:14:22;4.80;;;3.50;;
59728;SDS011;45588;51.598;5.618;2023-04-24T06:16:47;4.23;;;3.20;;
59728;SDS011;45588;51.598;5.618;2023-04-24T06:19:13;8.23;;;4.47;;
59728;SDS011;45588;51.598;5.618;2023-04-24T06:21:38;7.63;;;4.40;;
59728;SDS011;45588;51.598;5.618;2023-04-24T06:24:03;5.32;;;3.88;;
59728;SDS011;45588;51.598;5.618;2023-04-24T06:26:29;5.65;;;4.22;;
59728;SDS011;45588;51.598;5.618;2023-04-24T06:28:54;8.93;;;8.20;;
59728;SDS011;45588;51.598;5.618;2023-04-24T06:31:20;8.50;;;7.65;;
59728;SDS011;45588;51.598;5.618;2023-04-24T06:33:45;5.55;;;4.28;;
59728;SDS011;45588;51.598;5.618;2023-04-24T06:36:10;10.02;;;5.18;;
59728;SDS011;45588;51.598;5.618;2023-04-24T06:38:35;13.65;;;5.57;;
59728;SDS011;45588;51.598;5.618;2023-04-24T06:41:01;8.33;;;5.80;;
59728;SDS011;45588;51.598;5.618;2023-04-24T06:43:26;11.07;;;10.18;;
59728;SDS011;45588;51.598;5.618;2023-04-24T06:45:51;14.27;;;5.65;;
59728;SDS011;45588;51.598;5.618;2023-04-24T06:48:16;7.55;;;5.10;;
59728;SDS011;45588;51.598;5.618;2023-04-24T06:50:41;8.88;;;5.35;;
59728;SDS011;45588;51.598;5.618;2023-04-24T06:53:07;12.05;;;10.88;;
59728;SDS011;45588;51.598;5.618;2023-04-24T06:55:32;8.15;;;6.53;;
59728;SDS011;45588;51.598;5.618;2023-04-24T06:57:57;11.00;;;8.20;;
59728;SDS011;45588;51.598;5.618;2023-04-24T07:00:23;10.10;;;7.38;;
59728;SDS011;45588;51.598;5.618;2023-04-24T07:02:49;19.02;;;8.38;;
59728;SDS011;45588;51.598;5.618;2023-04-24T07:05:14;12.10;;;8.48;;
59728;SDS011;45588;51.598;5.618;2023-04-24T07:07:40;15.50;;;13.95;;
59728;SDS011;45588;51.598;5.618;2023-04-24T07:10:05;10.23;;;7.75;;
59728;SDS011;45588;51.598;5.618;2023-04-24T07:12:30;11.75;;;10.60;;
59728;SDS011;45588;51.598;5.618;2023-04-24T07:14:57;8.25;;;7.45;;
59728;SDS011;45588;51.598;5.618;2023-04-24T07:17:22;9.13;;;7.32;;
59728;SDS011;45588;51.598;5.618;2023-04-24T07:19:47;14.47;;;12.90;;
59728;SDS011;45588;51.598;5.618;2023-04-24T07:22:12;12.85;;;9.63;;
59728;SDS011;45588;51.598;5.618;2023-04-24T07:24:42;13.82;;;10.00;;
59728;SDS011;45588;51.598;5.618;2023-04-24T07:27:08;14.48;;;8.27;;
59728;SDS011;45588;51.598;5.618;2023-04-24T07:29:33;14.55;;;8.50;;
59728;SDS011;45588;51.598;5.618;2023-04-24T07:31:58;25.60;;;16.92;;
59728;SDS011;45588;51.598;5.618;2023-04-24T07:34:23;30.20;;;21.20;;
59728;SDS011;45588;51.598;5.618;2023-04-24T07:36:48;31.20;;;22.60;;
59728;SDS011;45588;51.598;5.618;2023-04-24T07:39:14;24.02;;;12.90;;
59728;SDS011;45588;51.598;5.618;2023-04-24T07:41:39;25.33;;;16.87;;
59728;SDS011;45588;51.598;5.618;2023-04-24T07:44:05;23.63;;;12.90;;
59728;SDS011;45588;51.598;5.618;2023-04-24T07:46:30;28.08;;;16.30;;
59728;SDS011;45588;51.598;5.618;2023-04-24T07:48:55;21.25;;;10.30;;
59728;SDS011;45588;51.598;5.618;2023-04-24T07:51:21;21.63;;;11.85;;
59728;SDS011;45588;51.598;5.618;2023-04-24T07:53:46;19.13;;;9.63;;
59728;SDS011;45588;51.598;5.618;2023-04-24T07:56:12;29.00;;;20.50;;
59728;SDS011;45588;51.598;5.618;2023-04-24T07:58:37;21.88;;;10.27;;
59728;SDS011;45588;51.598;5.618;2023-04-24T08:01:02;18.42;;;9.93;;
59728;SDS011;45588;51.598;5.618;2023-04-24T08:03:27;21.27;;;11.00;;
59728;SDS011;45588;51.598;5.618;2023-04-24T08:05:52;18.88;;;10.70;;
59728;SDS011;45588;51.598;5.618;2023-04-24T08:08:19;22.95;;;11.43;;
59728;SDS011;45588;51.598;5.618;2023-04-24T08:10:45;25.73;;;11.15;;
59728;SDS011;45588;51.598;5.618;2023-04-24T08:13:10;20.58;;;8.82;;
59728;SDS011;45588;51.598;5.618;2023-04-24T08:15:36;21.75;;;9.60;;
59728;SDS011;45588;51.598;5.618;2023-04-24T08:18:01;23.33;;;9.43;;
59728;SDS011;45588;51.598;5.618;2023-04-24T08:20:26;32.97;;;16.37;;
59728;SDS011;45588;51.598;5.618;2023-04-24T08:22:52;24.17;;;11.35;;
59728;SDS011;45588;51.598;5.618;2023-04-24T08:25:17;33.97;;;15.75;;
59728;SDS011;45588;51.598;5.618;2023-04-24T08:27:44;26.98;;;9.00;;
59728;SDS011;45588;51.598;5.618;2023-04-24T08:30:09;31.95;;;9.43;;
59728;SDS011;45588;51.598;5.618;2023-04-24T08:32:35;26.35;;;9.68;;
59728;SDS011;45588;51.598;5.618;2023-04-24T08:35:00;23.80;;;9.35;;
59728;SDS011;45588;51.598;5.618;2023-04-24T08:37:26;23.43;;;8.97;;
59728;SDS011;45588;51.598;5.618;2023-04-24T08:39:51;17.42;;;5.60;;
59728;SDS011;45588;51.598;5.618;2023-04-24T08:42:17;18.23;;;5.97;;
59728;SDS011;45588;51.598;5.618;2023-04-24T08:44:42;13.55;;;6.15;;
59728;SDS011;45588;51.598;5.618;2023-04-24T08:47:08;63.97;;;9.38;;
59728;SDS011;45588;51.598;5.618;2023-04-24T08:49:33;16.50;;;7.30;;
59728;SDS011;45588;51.598;5.618;2023-04-24T08:52:00;14.63;;;6.22;;
59728;SDS011;45588;51.598;5.618;2023-04-24T08:54:26;18.05;;;8.68;;
59728;SDS011;45588;51.598;5.618;2023-04-24T08:56:51;22.98;;;6.10;;
59728;SDS011;45588;51.598;5.618;2023-04-24T08:59:18;11.23;;;4.97;;
59728;SDS011;45588;51.598;5.618;2023-04-24T09:01:43;12.07;;;4.72;;
59728;SDS011;45588;51.598;5.618;2023-04-24T09:04:10;14.10;;;4.78;;
59728;SDS011;45588;51.598;5.618;2023-04-24T09:06:37;19.80;;;5.30;;
59728;SDS011;45588;51.598;5.618;2023-04-24T09:09:02;16.58;;;5.57;;
59728;SDS011;45588;51.598;5.618;2023-04-24T09:11:29;14.70;;;5.45;;
59728;SDS011;45588;51.598;5.618;2023-04-24T09:13:54;25.65;;;6.50;;
59728;SDS011;45588;51.598;5.618;2023-04-24T09:16:21;18.13;;;4.50;;
59728;SDS011;45588;51.598;5.618;2023-04-24T09:18:48;14.88;;;5.68;;
59728;SDS011;45588;51.598;5.618;2023-04-24T09:21:13;18.90;;;5.68;;
59728;SDS011;45588;51.598;5.618;2023-04-24T09:23:38;10.57;;;4.35;;
59728;SDS011;45588;51.598;5.618;2023-04-24T09:26:04;15.77;;;4.32;;
59728;SDS011;45588;51.598;5.618;2023-04-24T09:28:34;12.43;;;3.97;;
59728;SDS011;45588;51.598;5.618;2023-04-24T09:31:04;13.35;;;4.82;;
59728;SDS011;45588;51.598;5.618;2023-04-24T09:33:29;14.45;;;4.57;;
59728;SDS011;45588;51.598;5.618;2023-04-24T09:35:54;21.60;;;7.65;;
59728;SDS011;45588;51.598;5.618;2023-04-24T09:38:20;20.42;;;7.13;;
59728;SDS011;45588;51.598;5.618;2023-04-24T09:40:55;12.80;;;5.30;;
59728;SDS011;45588;51.598;5.618;2023-04-24T09:43:20;11.57;;;4.50;;
59728;SDS011;45588;51.598;5.618;2023-04-24T09:45:45;15.30;;;5.30;;
59728;SDS011;45588;51.598;5.618;2023-04-24T09:48:10;18.67;;;6.67;;
59728;SDS011;45588;51.598;5.618;2023-04-24T09:50:36;12.60;;;4.30;;
59728;SDS011;45588;51.598;5.618;2023-04-24T09:53:02;9.70;;;3.47;;
59728;SDS011;45588;51.598;5.618;2023-04-24T09:55:27;18.05;;;6.35;;
59728;SDS011;45588;51.598;5.618;2023-04-24T09:57:54;10.02;;;4.38;;
59728;SDS011;45588;51.598;5.618;2023-04-24T10:00:23;7.18;;;3.63;;
59728;SDS011;45588;51.598;5.618;2023-04-24T10:02:50;10.45;;;3.42;;
59728;SDS011;45588;51.598;5.618;2023-04-24T10:05:16;13.93;;;5.93;;
59728;SDS011;45588;51.598;5.618;2023-04-24T10:07:41;17.20;;;6.07;;
59728;SDS011;45588;51.598;5.618;2023-04-24T10:10:08;10.75;;;4.07;;
59728;SDS011;45588;51.598;5.618;2023-04-24T10:12:33;7.85;;;3.72;;
59728;SDS011;45588;51.598;5.618;2023-04-24T10:14:58;21.17;;;4.28;;
59728;SDS011;45588;51.598;5.618;2023-04-24T10:17:24;7.32;;;3.35;;
59728;SDS011;45588;51.598;5.618;2023-04-24T10:19:50;10.57;;;3.38;;
59728;SDS011;45588;51.598;5.618;2023-04-24T10:22:16;13.57;;;5.20;;
59728;SDS011;45588;51.598;5.618;2023-04-24T10:24:42;13.35;;;3.50;;
59728;SDS011;45588;51.598;5.618;2023-04-24T10:27:08;8.43;;;2.92;;
59728;SDS011;45588;51.598;5.618;2023-04-24T10:29:34;13.80;;;4.25;;
59728;SDS011;45588;51.598;5.618;2023-04-24T10:32:00;15.30;;;4.85;;
59728;SDS011;45588;51.598;5.618;2023-04-24T10:34:25;12.93;;;2.40;;
59728;SDS011;45588;51.598;5.618;2023-04-24T10:36:51;6.85;;;2.80;;
59728;SDS011;45588;51.598;5.618;2023-04-24T10:39:17;8.32;;;3.85;;
59728;SDS011;45588;51.598;5.618;2023-04-24T10:41:43;7.25;;;2.78;;
59728;SDS011;45588;51.598;5.618;2023-04-24T10:44:13;9.48;;;3.00;;
59728;SDS011;45588;51.598;5.618;2023-04-24T10:46:42;5.53;;;2.38;;
59728;SDS011;45588;51.598;5.618;2023-04-24T10:49:08;14.43;;;4.05;;
59728;SDS011;45588;51.598;5.618;2023-04-24T10:51:49;7.18;;;3.15;;
59728;SDS011;45588;51.598;5.618;2023-04-24T10:59:42;3.15;;;1.67;;
59728;SDS011;45588;51.598;5.618;2023-04-24T11:02:08;5.80;;;2.65;;
59728;SDS011;45588;51.598;5.618;2023-04-24T11:04:33;3.47;;;2.17;;
59728;SDS011;45588;51.598;5.618;2023-04-24T11:07:00;5.60;;;1.60;;
59728;SDS011;45588;51.598;5.618;2023-04-24T11:09:28;4.85;;;1.40;;
59728;SDS011;45588;51.598;5.618;2023-04-24T11:14:31;1.90;;;1.38;;
59728;SDS011;45588;51.598;5.618;2023-04-24T11:17:36;7.28;;;2.65;;
59728;SDS011;45588;51.598;5.618;2023-04-24T11:20:15;6.55;;;2.55;;
59728;SDS011;45588;51.598;5.618;2023-04-24T11:22:41;3.10;;;1.92;;
59728;SDS011;45588;51.598;5.618;2023-04-24T11:25:07;2.97;;;1.73;;
59728;SDS011;45588;51.598;5.618;2023-04-24T11:27:39;5.18;;;3.25;;
59728;SDS011;45588;51.598;5.618;2023-04-24T11:30:05;4.70;;;1.95;;
59728;SDS011;45588;51.598;5.618;2023-04-24T11:35:00;9.30;;;2.53;;
59728;SDS011;45588;51.598;5.618;2023-04-24T11:37:26;2.20;;;1.38;;
59728;SDS011;45588;51.598;5.618;2023-04-24T11:39:53;2.25;;;1.35;;
59728;SDS011;45588;51.598;5.618;2023-04-24T11:42:18;5.72;;;1.73;;
59728;SDS011;45588;51.598;5.618;2023-04-24T11:44:44;3.53;;;1.35;;
59728;SDS011;45588;51.598;5.618;2023-04-24T11:47:12;5.93;;;2.03;;
59728;SDS011;45588;51.598;5.618;2023-04-24T11:49:37;4.80;;;0.90;;
59728;SDS011;45588;51.598;5.618;2023-04-24T11:52:03;0.80;;;0.70;;
59728;SDS011;45588;51.598;5.618;2023-04-24T11:54:28;5.95;;;1.52;;
59728;SDS011;45588;51.598;5.618;2023-04-24T11:56:55;1.92;;;0.90;;
59728;SDS011;45588;51.598;5.618;2023-04-24T11:59:21;4.68;;;2.28;;
59728;SDS011;45588;51.598;5.618;2023-04-24T12:01:46;7.32;;;1.35;;
59728;SDS011;45588;51.598;5.618;2023-04-24T12:04:12;7.32;;;2.17;;
59728;SDS011;45588;51.598;5.618;2023-04-24T12:06:37;5.40;;;1.20;;
59728;SDS011;45588;51.598;5.618;2023-04-24T12:09:02;5.20;;;1.63;;
59728;SDS011;45588;51.598;5.618;2023-04-24T12:11:27;11.20;;;1.77;;
59728;SDS011;45588;51.598;5.618;2023-04-24T12:13:53;5.85;;;1.52;;
59728;SDS011;45588;51.598;5.618;2023-04-24T12:16:18;4.32;;;1.38;;
59728;SDS011;45588;51.598;5.618;2023-04-24T12:18:44;7.63;;;2.28;;
59728;SDS011;45588;51.598;5.618;2023-04-24T12:21:20;8.23;;;1.95;;
59728;SDS011;45588;51.598;5.618;2023-04-24T12:23:45;8.57;;;2.25;;
59728;SDS011;45588;51.598;5.618;2023-04-24T12:26:12;5.65;;;2.20;;
59728;SDS011;45588;51.598;5.618;2023-04-24T12:28:38;7.90;;;1.70;;
59728;SDS011;45588;51.598;5.618;2023-04-24T12:31:03;3.20;;;1.10;;
59728;SDS011;45588;51.598;5.618;2023-04-24T12:33:32;7.47;;;2.42;;
59728;SDS011;45588;51.598;5.618;2023-04-24T12:35:57;7.80;;;3.08;;
59728;SDS011;45588;51.598;5.618;2023-04-24T12:38:23;3.83;;;1.83;;
59728;SDS011;45588;51.598;5.618;2023-04-24T12:41:00;8.05;;;2.65;;
59728;SDS011;45588;51.598;5.618;2023-04-24T12:43:26;4.53;;;2.20;;
59728;SDS011;45588;51.598;5.618;2023-04-24T12:45:51;6.83;;;2.07;;
59728;SDS011;45588;51.598;5.618;2023-04-24T12:48:16;7.23;;;2.30;;
59728;SDS011;45588;51.598;5.618;2023-04-24T12:50:41;8.38;;;2.88;;
59728;SDS011;45588;51.598;5.618;2023-04-24T12:53:08;5.78;;;2.42;;
59728;SDS011;45588;51.598;5.618;2023-04-24T12:55:33;4.40;;;1.73;;
59728;SDS011;45588;51.598;5.618;2023-04-24T12:57:59;2.92;;;1.23;;
59728;SDS011;45588;51.598;5.618;2023-04-24T13:00:24;7.30;;;2.17;;
59728;SDS011;45588;51.598;5.618;2023-04-24T13:02:49;5.40;;;2.30;;
59728;SDS011;45588;51.598;5.618;2023-04-24T13:05:14;5.60;;;1.95;;
59728;SDS011;45588;51.598;5.618;2023-04-24T13:07:40;3.97;;;1.83;;
59728;SDS011;45588;51.598;5.618;2023-04-24T13:10:06;2.13;;;1.20;;
59728;SDS011;45588;51.598;5.618;2023-04-24T13:12:31;4.07;;;2.00;;
59728;SDS011;45588;51.598;5.618;2023-04-24T13:14:57;4.60;;;2.10;;
59728;SDS011;45588;51.598;5.618;2023-04-24T13:17:22;4.32;;;2.38;;
59728;SDS011;45588;51.598;5.618;2023-04-24T13:19:49;7.65;;;1.48;;
59728;SDS011;45588;51.598;5.618;2023-04-24T13:22:15;8.70;;;1.80;;
59728;SDS011;45588;51.598;5.618;2023-04-24T13:24:40;2.95;;;1.23;;
59728;SDS011;45588;51.598;5.618;2023-04-24T13:27:06;3.67;;;2.03;;
59728;SDS011;45588;51.598;5.618;2023-04-24T13:29:31;4.60;;;2.22;;
59728;SDS011;45588;51.598;5.618;2023-04-24T13:31:57;5.07;;;1.83;;
59728;SDS011;45588;51.598;5.618;2023-04-24T13:34:22;4.13;;;1.70;;
59728;SDS011;45588;51.598;5.618;2023-04-24T13:36:49;4.72;;;2.30;;
59728;SDS011;45588;51.598;5.618;2023-04-24T13:39:14;3.22;;;2.08;;
59728;SDS011;45588;51.598;5.618;2023-04-24T13:41:39;7.00;;;2.78;;
59728;SDS011;45588;51.598;5.618;2023-04-24T13:44:05;3.50;;;1.10;;
59728;SDS011;45588;51.598;5.618;2023-04-24T13:46:30;4.03;;;2.00;;
59728;SDS011;45588;51.598;5.618;2023-04-24T13:48:56;2.23;;;1.70;;
59728;SDS011;45588;51.598;5.618;2023-04-24T13:51:22;3.83;;;1.42;;
59728;SDS011;45588;51.598;5.618;2023-04-24T13:53:47;6.57;;;2.30;;
59728;SDS011;45588;51.598;5.618;2023-04-24T13:56:12;5.27;;;2.27;;
59728;SDS011;45588;51.598;5.618;2023-04-24T13:58:38;5.50;;;1.77;;
59728;SDS011;45588;51.598;5.618;2023-04-24T14:01:04;5.70;;;1.40;;
59728;SDS011;45588;51.598;5.618;2023-04-24T14:03:29;6.32;;;1.63;;
59728;SDS011;45588;51.598;5.618;2023-04-24T14:05:54;7.07;;;3.03;;
59728;SDS011;45588;51.598;5.618;2023-04-24T14:08:20;5.18;;;2.50;;
59728;SDS011;45588;51.598;5.618;2023-04-24T14:10:45;4.28;;;1.45;;
59728;SDS011;45588;51.598;5.618;2023-04-24T14:13:10;3.85;;;2.47;;
59728;SDS011;45588;51.598;5.618;2023-04-24T14:15:35;2.33;;;1.90;;
59728;SDS011;45588;51.598;5.618;2023-04-24T14:18:01;1.88;;;1.50;;
59728;SDS011;45588;51.598;5.618;2023-04-24T14:20:26;5.72;;;1.80;;
59728;SDS011;45588;51.598;5.618;2023-04-24T14:22:51;2.40;;;1.60;;
59728;SDS011;45588;51.598;5.618;2023-04-24T14:25:16;4.72;;;1.80;;
59728;SDS011;45588;51.598;5.618;2023-04-24T14:27:42;4.30;;;1.53;;
59728;SDS011;45588;51.598;5.618;2023-04-24T14:30:07;4.13;;;1.30;;
59728;SDS011;45588;51.598;5.618;2023-04-24T14:32:32;5.13;;;2.00;;
59728;SDS011;45588;51.598;5.618;2023-04-24T14:34:58;4.43;;;2.10;;